Time;durP1;ratioP1;P1;durP2;ratioP2;P2;SDS_P1;SDS_P2;PMS_P1;PMS_P2;Temp;Humidity;BMP_temperature;BMP_pressure;BME280_temperature;BME280_humidity;BME280_pressure;Samples;Min_cycle;Max_cycle;Signal;HPM_P1;HPM_P2
2021/12/11 00:01:30;;;;;;;4.15;3.00;;;4.10;54.50;;;;;;5024683;28;34411;-76
2021/12/11 00:04:00;;;;;;;3.50;2.80;;;4.00;54.40;;;;;;5008386;28;35959;-76
2021/12/11 00:06:30;;;;;;;4.15;2.88;;;4.00;54.40;;;;;;5008025;28;34170;-77
2021/12/11 00:09:00;;;;;;;3.42;3.13;;;4.10;54.50;;;;;;5041531;28;34230;-77
2021/12/11 00:11:33;;;;;;;3.95;3.17;;;4.10;54.50;;;;;;5042023;27;34111;-77
2021/12/11 00:14:03;;;;;;;3.05;2.55;;;4.00;54.40;;;;;;5040806;28;36369;-77
2021/12/11 00:16:31;;;;;;;3.58;2.78;;;4.00;54.40;;;;;;5058257;27;34326;-77
2021/12/11 00:19:14;;;;;;;3.80;3.10;;;4.00;54.50;;;;;;5007867;28;34322;-77
2021/12/11 00:21:40;;;;;;;3.38;2.80;;;4.00;54.50;;;;;;5025547;28;34091;-77
2021/12/11 00:24:12;;;;;;;3.17;2.83;;;4.00;54.40;;;;;;5023936;28;36714;-77
2021/12/11 00:26:46;;;;;;;4.13;2.78;;;4.00;54.40;;;;;;5026044;28;34262;-77
2021/12/11 00:29:15;;;;;;;3.58;2.75;;;4.00;54.30;;;;;;5008374;28;34255;-77
2021/12/11 00:31:46;;;;;;;3.42;2.67;;;4.00;53.90;;;;;;5042981;28;34195;-77
2021/12/11 00:34:15;;;;;;;3.22;2.65;;;4.00;54.30;;;;;;5024476;28;36088;-77
2021/12/11 00:36:50;;;;;;;4.40;3.25;;;4.00;54.30;;;;;;5025749;28;34300;-76
2021/12/11 00:39:18;;;;;;;4.43;3.00;;;4.00;54.40;;;;;;5024830;28;34210;-77
2021/12/11 00:41:50;;;;;;;4.05;3.00;;;4.00;54.20;;;;;;5010050;28;34215;-77
2021/12/11 00:44:17;;;;;;;4.90;3.55;;;4.00;54.10;;;;;;5009591;28;35625;-77
2021/12/11 00:46:43;;;;;;;3.75;3.25;;;4.00;54.10;;;;;;5026819;28;34140;-76
2021/12/11 00:49:21;;;;;;;4.18;3.15;;;4.00;54.10;;;;;;5043620;28;34177;-77
2021/12/11 00:51:54;;;;;;;3.65;3.05;;;4.00;54.10;;;;;;5024548;28;34473;-77
2021/12/11 00:54:21;;;;;;;3.88;3.08;;;4.00;54.00;;;;;;5025100;28;36016;-77
2021/12/11 00:56:48;;;;;;;4.45;3.53;;;4.00;54.20;;;;;;5043493;27;34106;-77
2021/12/11 00:59:18;;;;;;;5.68;3.22;;;4.00;54.10;;;;;;5009897;28;34300;-77
2021/12/11 01:01:52;;;;;;;4.82;3.55;;;4.10;54.40;;;;;;5027748;28;34436;-77
2021/12/11 01:04:26;;;;;;;5.07;3.75;;;4.10;54.30;;;;;;5026220;28;35787;-77
2021/12/11 01:06:57;;;;;;;5.28;3.55;;;4.00;54.20;;;;;;5042943;28;34200;-77
2021/12/11 01:09:40;;;;;;;5.32;3.88;;;4.10;54.10;;;;;;5009973;28;34227;-76
2021/12/11 01:12:13;;;;;;;4.90;3.28;;;4.00;53.90;;;;;;5027118;28;34383;-77
2021/12/11 01:14:53;;;;;;;4.75;3.47;;;4.00;53.90;;;;;;5009269;28;36291;-76
2021/12/11 01:17:39;;;;;;;3.85;3.08;;;4.00;53.90;;;;;;5027518;28;34268;-76
2021/12/11 01:20:10;;;;;;;3.60;3.13;;;4.00;53.80;;;;;;5026803;28;34213;-77
2021/12/11 01:22:37;;;;;;;4.80;3.45;;;4.00;53.90;;;;;;5044855;28;34349;-77
2021/12/11 01:25:12;;;;;;;5.85;3.92;;;4.00;53.90;;;;;;5044740;28;35814;-77
2021/12/11 01:27:43;;;;;;;4.13;3.13;;;4.00;53.90;;;;;;5027329;28;34157;-77
2021/12/11 01:30:14;;;;;;;5.00;3.72;;;4.00;53.90;;;;;;5010802;28;34219;-77
2021/12/11 01:32:41;;;;;;;5.30;3.97;;;4.00;53.90;;;;;;5027093;28;34173;-77
2021/12/11 01:35:10;;;;;;;5.75;3.97;;;4.00;53.90;;;;;;5026333;28;35615;-77
2021/12/11 01:37:37;;;;;;;4.97;3.95;;;4.00;54.00;;;;;;5028950;28;34348;-77
2021/12/11 01:40:07;;;;;;;4.57;3.35;;;4.00;54.00;;;;;;5043436;28;34202;-77
2021/12/11 01:42:35;;;;;;;5.10;3.72;;;4.00;53.90;;;;;;5027198;28;34177;-77
2021/12/11 01:45:05;;;;;;;6.38;4.25;;;3.90;53.90;;;;;;5009337;28;36817;-77
2021/12/11 01:47:36;;;;;;;5.45;3.80;;;4.00;54.10;;;;;;5027318;28;34247;-77
2021/12/11 01:50:11;;;;;;;5.97;4.13;;;4.00;54.10;;;;;;5026545;28;34025;-77
2021/12/11 01:52:48;;;;;;;7.13;4.55;;;3.90;54.00;;;;;;5043045;28;34302;-78
2021/12/11 01:55:23;;;;;;;6.63;4.00;;;4.00;54.10;;;;;;5009275;28;35942;-77
2021/12/11 01:57:52;;;;;;;4.68;3.45;;;4.00;54.20;;;;;;5027333;28;34014;-77
2021/12/11 02:00:27;;;;;;;6.22;4.65;;;3.90;54.20;;;;;;5028283;28;34251;-76
2021/12/11 02:02:55;;;;;;;7.10;4.20;;;3.90;54.20;;;;;;5043157;28;34189;-77
2021/12/11 02:05:26;;;;;;;6.07;4.13;;;3.90;54.20;;;;;;5026159;28;35076;-77
2021/12/11 02:07:55;;;;;;;7.18;4.10;;;3.90;54.20;;;;;;5025356;28;34277;-77
2021/12/11 02:10:28;;;;;;;9.25;5.10;;;3.90;54.20;;;;;;5025490;28;34232;-77
2021/12/11 02:12:56;;;;;;;8.45;4.55;;;3.90;54.20;;;;;;5028484;28;34440;-77
2021/12/11 02:15:33;;;;;;;6.85;4.60;;;4.00;54.20;;;;;;5009580;28;35830;-77
2021/12/11 02:18:18;;;;;;;8.48;5.00;;;4.00;54.20;;;;;;5022597;28;34203;-77
2021/12/11 02:20:58;;;;;;;7.35;4.68;;;4.00;54.10;;;;;;5010306;28;34208;-77
2021/12/11 02:23:25;;;;;;;9.05;5.05;;;4.00;54.10;;;;;;5007605;28;34213;-77
2021/12/11 02:25:55;;;;;;;9.05;4.88;;;4.00;54.10;;;;;;4991303;28;35968;-77
2021/12/11 02:28:34;;;;;;;9.13;5.43;;;4.10;54.20;;;;;;5007308;28;34111;-77
2021/12/11 02:31:11;;;;;;;9.27;5.72;;;4.00;54.80;;;;;;5007400;28;34150;-77
2021/12/11 02:33:45;;;;;;;9.80;6.07;;;4.10;54.30;;;;;;5008287;28;34192;-77
2021/12/11 02:36:18;;;;;;;9.07;5.70;;;4.00;54.10;;;;;;5007896;28;34949;-76
2021/12/11 02:39:14;;;;;;;10.63;6.10;;;4.00;54.10;;;;;;5008844;28;33747;-77
2021/12/11 02:42:00;;;;;;;9.98;5.78;;;4.00;54.10;;;;;;5007888;28;34354;-76
2021/12/11 02:44:43;;;;;;;7.35;4.43;;;4.10;54.30;;;;;;5008414;28;34583;-77
2021/12/11 02:47:37;;;;;;;10.30;5.43;;;4.00;54.00;;;;;;5009682;28;35937;-77
2021/12/11 02:50:18;;;;;;;7.85;4.75;;;4.10;54.00;;;;;;5008370;28;34269;-77
2021/12/11 02:53:04;;;;;;;11.00;5.60;;;4.10;54.20;;;;;;4990846;28;33634;-77
2021/12/11 02:55:50;;;;;;;7.95;4.65;;;4.10;54.20;;;;;;4990724;28;34326;-76
2021/12/11 02:58:24;;;;;;;9.63;5.45;;;4.10;54.30;;;;;;5007311;28;35568;-76
2021/12/11 03:01:05;;;;;;;9.90;5.45;;;4.10;54.30;;;;;;5007061;28;34069;-76
2021/12/11 03:03:39;;;;;;;9.85;5.47;;;4.10;54.20;;;;;;4990796;28;34359;-76
2021/12/11 03:06:16;;;;;;;10.77;5.05;;;4.10;54.10;;;;;;4993041;28;34150;-76
2021/12/11 03:08:43;;;;;;;10.70;5.35;;;4.20;54.20;;;;;;5007918;28;36833;-76
2021/12/11 03:11:15;;;;;;;7.95;4.95;;;4.10;54.30;;;;;;4992251;28;34039;-76
2021/12/11 03:13:50;;;;;;;8.10;4.60;;;4.10;54.20;;;;;;4991129;28;34170;-76
2021/12/11 03:16:18;;;;;;;7.43;4.75;;;4.10;54.30;;;;;;5009074;28;34151;-77
2021/12/11 03:18:45;;;;;;;9.13;5.13;;;4.10;55.00;;;;;;5010326;28;35745;-77
2021/12/11 03:21:11;;;;;;;9.65;5.47;;;4.20;54.30;;;;;;5008571;28;34375;-77
2021/12/11 03:23:37;;;;;;;10.85;5.43;;;4.20;54.40;;;;;;5008696;28;34355;-77
2021/12/11 03:26:03;;;;;;;11.63;5.28;;;4.20;54.30;;;;;;5007935;28;34379;-77
2021/12/11 03:28:29;;;;;;;9.15;4.72;;;4.20;54.20;;;;;;5008625;28;34420;-77
2021/12/11 03:30:59;;;;;;;10.45;5.13;;;4.20;55.00;;;;;;5007683;28;34123;-77
2021/12/11 03:33:31;;;;;;;8.50;5.10;;;4.20;54.10;;;;;;5008927;28;34229;-77
2021/12/11 03:35:57;;;;;;;10.52;5.03;;;4.20;54.10;;;;;;4991515;28;34346;-77
2021/12/11 03:38:25;;;;;;;8.43;4.75;;;4.20;54.10;;;;;;5007956;28;36509;-77
2021/12/11 03:40:52;;;;;;;9.05;5.15;;;4.20;53.90;;;;;;4990470;28;34215;-76
2021/12/11 03:43:21;;;;;;;7.45;4.85;;;4.20;54.00;;;;;;5007563;28;34238;-76
2021/12/11 03:45:50;;;;;;;10.02;5.45;;;4.20;54.00;;;;;;5008606;28;34491;-77
2021/12/11 03:48:25;;;;;;;9.48;5.13;;;4.20;54.00;;;;;;5007341;28;36632;-76
2021/12/11 03:50:52;;;;;;;9.38;4.97;;;4.20;53.90;;;;;;5009011;28;34378;-76
2021/12/11 03:53:19;;;;;;;8.85;5.15;;;4.20;54.00;;;;;;5007466;28;34238;-77
2021/12/11 03:55:50;;;;;;;9.52;5.13;;;4.20;53.90;;;;;;5008481;28;34471;-77
2021/12/11 03:58:16;;;;;;;10.15;5.47;;;4.10;53.90;;;;;;5008049;28;36087;-77
2021/12/11 04:00:50;;;;;;;9.27;4.93;;;4.20;53.90;;;;;;5009489;28;34142;-77
2021/12/11 04:03:19;;;;;;;8.85;4.68;;;4.20;53.90;;;;;;4990672;28;34252;-77
2021/12/11 04:05:47;;;;;;;11.20;5.20;;;4.20;53.90;;;;;;5008634;28;34505;-77
2021/12/11 04:08:17;;;;;;;9.68;5.43;;;4.20;53.90;;;;;;5008057;28;35569;-76
2021/12/11 04:10:43;;;;;;;8.82;4.75;;;4.20;53.90;;;;;;5007318;28;34153;-76
2021/12/11 04:13:11;;;;;;;11.13;5.35;;;4.10;53.80;;;;;;5008076;28;34112;-77
2021/12/11 04:15:38;;;;;;;10.68;5.20;;;4.10;54.00;;;;;;5008733;28;34153;-77
2021/12/11 04:18:05;;;;;;;9.38;4.82;;;4.20;53.90;;;;;;5014237;28;35168;-76
2021/12/11 04:20:36;;;;;;;8.82;4.78;;;4.20;53.90;;;;;;5049465;28;33936;-76
2021/12/11 04:23:04;;;;;;;9.98;5.50;;;4.20;53.90;;;;;;5030773;28;34320;-76
2021/12/11 04:25:30;;;;;;;8.75;5.55;;;4.20;53.90;;;;;;5032382;28;34088;-76
2021/12/11 04:27:57;;;;;;;11.07;5.18;;;4.20;53.90;;;;;;5048244;28;35797;-77
2021/12/11 04:30:26;;;;;;;11.63;5.22;;;4.20;54.00;;;;;;5031707;28;34280;-77
2021/12/11 04:32:54;;;;;;;8.85;5.38;;;4.20;54.10;;;;;;5015238;28;34192;-76
2021/12/11 04:35:22;;;;;;;9.00;5.50;;;4.20;54.80;;;;;;5015205;28;34048;-76
2021/12/11 04:37:48;;;;;;;9.57;5.05;;;4.20;54.10;;;;;;5031139;28;35980;-77
2021/12/11 04:40:20;;;;;;;9.43;5.05;;;4.30;54.20;;;;;;5047612;28;34559;-76
2021/12/11 04:43:03;;;;;;;8.38;5.15;;;4.30;54.30;;;;;;5015665;28;34274;-77
2021/12/11 04:45:35;;;;;;;10.48;5.38;;;4.30;54.20;;;;;;5031861;28;34020;-77
2021/12/11 04:48:11;;;;;;;10.23;5.45;;;4.30;54.20;;;;;;5031742;28;36867;-77
2021/12/11 04:50:48;;;;;;;8.75;4.75;;;4.30;54.10;;;;;;5031309;28;34348;-76
2021/12/11 04:53:46;;;;;;;8.65;4.97;;;4.30;54.10;;;;;;5015366;28;33776;-76
2021/12/11 04:58:57;;;;;;;9.95;5.28;;;4.40;54.30;;;;;;5033734;28;34319;-76
2021/12/11 05:01:37;;;;;;;10.68;5.13;;;4.30;54.30;;;;;;5030552;28;34239;-76
2021/12/11 05:04:17;;;;;;;10.60;5.40;;;4.30;54.40;;;;;;5048444;28;34067;-76
2021/12/11 05:07:00;;;;;;;12.43;6.18;;;4.30;54.40;;;;;;5032682;28;34446;-76
2021/12/11 05:12:20;;;;;;;11.02;5.88;;;4.30;54.30;;;;;;5047375;28;34176;-77
2021/12/11 05:14:46;;;;;;;10.15;5.35;;;4.30;54.30;;;;;;5032025;28;34221;-76
2021/12/11 05:17:14;;;;;;;11.63;5.90;;;4.30;54.30;;;;;;5030738;28;34380;-76
2021/12/11 05:19:41;;;;;;;10.00;5.50;;;4.30;54.40;;;;;;5030150;28;35800;-77
2021/12/11 05:22:08;;;;;;;10.45;6.22;;;4.30;54.40;;;;;;5013499;28;34108;-77
2021/12/11 05:24:36;;;;;;;9.63;5.38;;;4.30;54.40;;;;;;5030604;28;34225;-77
2021/12/11 05:27:03;;;;;;;16.02;7.50;;;4.30;54.40;;;;;;5047313;28;33760;-77
2021/12/11 05:29:30;;;;;;;13.23;6.75;;;4.30;54.40;;;;;;5029718;28;35751;-76
2021/12/11 05:31:57;;;;;;;12.68;6.78;;;4.30;54.40;;;;;;5047898;28;34357;-77
2021/12/11 05:34:23;;;;;;;11.55;6.30;;;4.30;54.40;;;;;;5030079;28;34245;-77
2021/12/11 05:36:49;;;;;;;15.10;7.40;;;4.30;54.40;;;;;;5014630;28;34824;-77
2021/12/11 05:39:18;;;;;;;10.23;5.95;;;4.30;54.40;;;;;;5029559;28;35599;-77
2021/12/11 05:41:46;;;;;;;12.02;6.78;;;4.30;54.40;;;;;;5030026;28;34273;-77
2021/12/11 05:44:13;;;;;;;13.73;6.57;;;4.30;54.40;;;;;;5029851;28;34194;-77
2021/12/11 05:46:40;;;;;;;14.55;7.15;;;4.30;54.50;;;;;;5030996;28;34421;-77
2021/12/11 05:49:08;;;;;;;13.75;6.65;;;4.30;54.60;;;;;;5030644;28;36068;-76
2021/12/11 05:51:39;;;;;;;13.20;6.93;;;4.30;54.50;;;;;;5031015;28;35035;-76
2021/12/11 05:54:09;;;;;;;14.52;7.20;;;4.40;54.50;;;;;;5034517;28;33685;-76
2021/12/11 05:56:37;;;;;;;15.60;7.05;;;4.40;54.50;;;;;;5017412;28;34183;-76
2021/12/11 05:59:05;;;;;;;11.85;7.22;;;4.40;54.50;;;;;;5032779;28;35998;-76
2021/12/11 06:01:37;;;;;;;12.30;6.65;;;4.40;54.50;;;;;;5033692;28;34371;-77
2021/12/11 06:04:09;;;;;;;15.25;7.20;;;4.30;54.60;;;;;;5015872;28;34462;-76
2021/12/11 06:06:37;;;;;;;12.18;6.82;;;4.30;54.60;;;;;;5033711;28;34341;-77
2021/12/11 06:09:06;;;;;;;13.48;7.10;;;4.30;54.70;;;;;;5016236;28;36004;-76
2021/12/11 06:11:33;;;;;;;14.65;8.00;;;4.30;54.70;;;;;;5032420;28;34245;-77
2021/12/11 06:13:59;;;;;;;13.48;6.63;;;4.30;54.60;;;;;;5031786;28;34379;-77
2021/12/11 06:16:25;;;;;;;12.13;7.10;;;4.30;54.60;;;;;;5066289;27;34364;-77
2021/12/11 06:18:51;;;;;;;14.95;7.97;;;4.30;54.70;;;;;;5032959;28;36777;-77
2021/12/11 06:21:17;;;;;;;13.52;6.80;;;4.40;54.80;;;;;;5032310;28;34444;-76
2021/12/11 06:23:44;;;;;;;13.90;6.78;;;4.30;54.70;;;;;;5032795;28;34035;-76
2021/12/11 06:26:10;;;;;;;11.88;6.50;;;4.40;54.70;;;;;;5033177;28;34033;-77
2021/12/11 06:28:37;;;;;;;13.85;7.55;;;4.40;54.60;;;;;;5032670;28;35794;-76
2021/12/11 06:31:05;;;;;;;14.80;6.93;;;4.40;54.50;;;;;;5032520;28;34212;-77
2021/12/11 06:33:34;;;;;;;14.00;7.25;;;4.40;54.60;;;;;;5016741;28;34225;-77
2021/12/11 06:36:06;;;;;;;14.48;6.75;;;4.40;54.60;;;;;;5050883;28;34132;-77
2021/12/11 06:38:35;;;;;;;14.55;7.05;;;4.40;54.70;;;;;;5032844;28;35987;-77
2021/12/11 06:41:03;;;;;;;13.88;6.55;;;4.40;54.70;;;;;;5032636;28;34167;-76
2021/12/11 06:43:29;;;;;;;14.80;7.70;;;4.40;54.70;;;;;;5016503;28;33788;-77
2021/12/11 06:45:56;;;;;;;12.63;6.28;;;4.40;54.80;;;;;;5032890;28;34107;-77
2021/12/11 06:48:22;;;;;;;12.70;7.45;;;4.40;54.70;;;;;;5031474;28;36639;-77
2021/12/11 06:50:50;;;;;;;14.00;7.55;;;4.50;54.80;;;;;;5032577;28;33721;-76
2021/12/11 06:53:23;;;;;;;12.68;7.00;;;4.40;54.40;;;;;;5032496;28;34189;-77
2021/12/11 06:55:49;;;;;;;11.93;6.75;;;4.50;54.60;;;;;;5048976;28;34373;-77
2021/12/11 06:58:15;;;;;;;14.85;6.97;;;4.40;54.60;;;;;;5031027;28;35829;-76
2021/12/11 07:00:41;;;;;;;13.48;7.25;;;4.40;54.70;;;;;;5031530;28;34268;-77
2021/12/11 07:03:07;;;;;;;14.20;7.53;;;4.50;54.80;;;;;;5030677;28;34244;-77
2021/12/11 07:05:36;;;;;;;15.55;7.43;;;4.50;55.20;;;;;;5031455;28;34263;-77
2021/12/11 07:08:05;;;;;;;13.77;7.35;;;4.50;54.40;;;;;;5031689;28;35687;-76
2021/12/11 07:10:31;;;;;;;12.75;7.15;;;4.50;54.40;;;;;;5032786;28;34256;-76
2021/12/11 07:12:57;;;;;;;13.20;7.07;;;4.50;54.50;;;;;;5049442;28;34155;-77
2021/12/11 07:15:23;;;;;;;13.00;7.20;;;4.50;54.50;;;;;;5050716;28;34187;-76
2021/12/11 07:17:50;;;;;;;14.85;7.57;;;4.50;54.60;;;;;;5031531;28;36076;-76
2021/12/11 07:20:16;;;;;;;13.73;7.18;;;4.50;54.60;;;;;;5033117;28;34262;-76
2021/12/11 07:22:43;;;;;;;13.52;6.88;;;4.50;54.50;;;;;;5050900;28;34183;-78
2021/12/11 07:25:29;;;;;;;12.60;7.40;;;4.50;54.60;;;;;;5032316;28;33764;-77
2021/12/11 07:27:57;;;;;;;12.18;7.15;;;4.50;54.60;;;;;;5051035;28;34392;-77
2021/12/11 07:30:24;;;;;;;13.00;6.82;;;4.50;54.60;;;;;;5014992;28;34473;-76
2021/12/11 07:32:54;;;;;;;13.93;7.20;;;4.50;54.60;;;;;;5015957;28;34274;-76
2021/12/11 07:35:20;;;;;;;13.25;7.85;;;4.50;54.70;;;;;;5033351;28;34201;-76
2021/12/11 07:37:49;;;;;;;12.50;7.20;;;4.50;54.40;;;;;;5032449;28;35634;-76
2021/12/11 07:40:19;;;;;;;10.90;7.15;;;4.50;54.50;;;;;;5032265;28;34461;-76
2021/12/11 07:42:45;;;;;;;12.77;7.13;;;4.60;54.50;;;;;;5048596;28;34044;-77
2021/12/11 07:45:11;;;;;;;13.27;7.45;;;4.50;54.50;;;;;;5031501;28;34179;-77
2021/12/11 07:47:37;;;;;;;11.25;6.38;;;4.50;54.40;;;;;;5032516;28;35606;-76
2021/12/11 07:50:05;;;;;;;11.95;7.10;;;4.60;55.00;;;;;;5032497;28;33758;-76
2021/12/11 07:52:31;;;;;;;11.70;6.70;;;4.60;54.20;;;;;;5049965;28;34221;-76
2021/12/11 07:54:57;;;;;;;12.27;6.80;;;4.60;54.20;;;;;;5031935;28;34079;-76
2021/12/11 07:57:23;;;;;;;13.00;7.30;;;4.50;54.10;;;;;;5032792;28;34228;-77
2021/12/11 07:59:49;;;;;;;13.45;7.20;;;4.60;54.10;;;;;;5032303;28;34113;-77
2021/12/11 08:02:15;;;;;;;12.00;7.63;;;4.60;54.20;;;;;;5032588;28;34156;-77
2021/12/11 08:04:41;;;;;;;11.32;7.25;;;4.50;54.20;;;;;;5032803;28;34218;-76
2021/12/11 08:07:07;;;;;;;12.65;6.85;;;4.60;54.20;;;;;;5049349;28;34412;-76
2021/12/11 08:09:34;;;;;;;11.50;7.05;;;4.50;54.20;;;;;;5032999;28;34500;-77
2021/12/11 08:12:00;;;;;;;11.30;7.00;;;4.60;54.40;;;;;;5051044;28;34232;-77
2021/12/11 08:14:26;;;;;;;13.25;7.13;;;4.60;54.30;;;;;;5050568;27;34445;-77
2021/12/11 08:16:57;;;;;;;11.77;6.90;;;4.60;54.10;;;;;;5032504;28;35751;-77
2021/12/11 08:19:27;;;;;;;16.48;6.80;;;4.60;54.10;;;;;;5015494;28;34296;-77
2021/12/11 08:21:58;;;;;;;15.63;7.78;;;4.60;54.20;;;;;;5008351;28;34068;-77
2021/12/11 08:24:27;;;;;;;12.35;7.57;;;4.70;54.20;;;;;;5008793;28;34274;-76
2021/12/11 08:26:56;;;;;;;11.88;7.32;;;4.70;54.90;;;;;;4992168;28;35916;-77
2021/12/11 08:29:22;;;;;;;11.65;7.35;;;4.70;54.00;;;;;;5008525;28;34207;-76
2021/12/11 08:31:53;;;;;;;12.65;7.95;;;4.70;54.00;;;;;;5008126;28;34245;-77
2021/12/11 08:34:20;;;;;;;11.85;7.78;;;4.70;54.00;;;;;;4993360;28;34251;-77
2021/12/11 08:36:47;;;;;;;13.55;7.53;;;4.70;54.10;;;;;;5008507;28;35794;-77
2021/12/11 08:39:15;;;;;;;11.95;6.82;;;4.80;54.10;;;;;;5008474;28;34375;-77
2021/12/11 08:41:45;;;;;;;13.88;8.20;;;4.80;54.00;;;;;;5025983;28;34309;-77
2021/12/11 08:44:18;;;;;;;10.52;6.97;;;4.80;54.00;;;;;;5025060;28;34613;-76
2021/12/11 08:46:51;;;;;;;14.57;8.52;;;4.80;54.00;;;;;;5024660;28;35202;-76
2021/12/11 08:49:21;;;;;;;12.50;8.02;;;4.80;53.90;;;;;;5007935;28;34183;-77
2021/12/11 08:52:06;;;;;;;12.38;7.82;;;4.90;54.00;;;;;;5008517;28;33717;-77
2021/12/11 08:54:33;;;;;;;14.02;7.95;;;4.90;54.00;;;;;;5010346;28;34092;-76
2021/12/11 08:57:04;;;;;;;14.38;7.97;;;4.90;53.80;;;;;;5009448;28;34350;-76
2021/12/11 08:59:32;;;;;;;10.05;6.65;;;4.90;53.90;;;;;;4991636;28;34155;-77
2021/12/11 09:02:13;;;;;;;11.65;7.05;;;4.90;53.90;;;;;;4991881;28;34273;-76
2021/12/11 09:04:58;;;;;;;10.27;6.53;;;4.90;53.80;;;;;;5008916;28;34076;-76
2021/12/11 09:07:40;;;;;;;10.02;6.78;;;4.80;54.20;;;;;;5008076;28;36050;-77
2021/12/11 09:10:25;;;;;;;9.43;6.07;;;4.90;53.90;;;;;;5009250;28;34368;-77
2021/12/11 09:13:00;;;;;;;9.90;6.28;;;4.90;54.10;;;;;;5007866;28;34139;-77
2021/12/11 09:15:44;;;;;;;10.25;6.75;;;4.90;54.10;;;;;;5007865;28;34205;-77
2021/12/11 09:18:20;;;;;;;10.55;6.63;;;4.90;54.10;;;;;;5014362;28;35533;-77
2021/12/11 09:20:56;;;;;;;9.77;6.32;;;5.00;53.90;;;;;;5031649;28;34096;-77
2021/12/11 09:23:29;;;;;;;9.55;6.15;;;5.10;54.10;;;;;;5031413;28;34131;-77
2021/12/11 09:26:06;;;;;;;9.70;6.43;;;5.10;53.90;;;;;;5032139;28;34087;-77
2021/12/11 09:28:40;;;;;;;11.15;6.35;;;5.10;53.90;;;;;;5051368;28;36171;-77
2021/12/11 09:31:15;;;;;;;10.30;6.25;;;5.20;53.90;;;;;;5051169;28;34181;-77
2021/12/11 09:33:48;;;;;;;10.68;6.95;;;5.20;54.00;;;;;;5034102;28;34402;-77
2021/12/11 09:36:20;;;;;;;10.65;6.03;;;5.20;54.00;;;;;;5050825;28;34209;-77
2021/12/11 09:38:51;;;;;;;9.68;5.72;;;5.20;54.00;;;;;;5034267;28;34334;-77
2021/12/11 09:41:19;;;;;;;9.48;6.38;;;5.30;54.10;;;;;;5034283;28;34525;-76
2021/12/11 09:44:06;;;;;;;8.95;6.00;;;5.30;54.20;;;;;;5034259;28;34269;-76
2021/12/11 09:46:38;;;;;;;9.63;6.03;;;5.40;54.20;;;;;;5016972;28;34278;-77
2021/12/11 09:49:08;;;;;;;8.27;5.40;;;5.40;54.20;;;;;;5032511;28;35996;-77
2021/12/11 09:51:40;;;;;;;7.65;4.90;;;5.50;54.20;;;;;;5014748;28;34243;-77
2021/12/11 09:54:12;;;;;;;9.20;5.78;;;5.40;54.20;;;;;;5032659;28;34302;-77
2021/12/11 09:56:48;;;;;;;11.43;6.32;;;5.50;54.20;;;;;;5031673;28;33997;-77
2021/12/11 09:59:17;;;;;;;10.55;6.00;;;5.50;54.10;;;;;;5014495;28;35530;-77
2021/12/11 10:01:47;;;;;;;10.00;5.53;;;5.50;54.10;;;;;;5029120;28;34154;-78
2021/12/11 10:04:19;;;;;;;10.93;6.38;;;5.60;54.20;;;;;;5012199;28;34055;-78
2021/12/11 10:07:02;;;;;;;9.68;5.43;;;5.60;54.20;;;;;;5014454;28;34783;-77
2021/12/11 10:09:37;;;;;;;10.05;5.90;;;5.60;54.20;;;;;;5049070;28;36614;-77
2021/12/11 10:12:13;;;;;;;9.27;5.90;;;5.60;54.00;;;;;;5030641;28;34268;-77
2021/12/11 10:14:45;;;;;;;7.78;5.32;;;5.70;54.20;;;;;;5048218;28;34363;-77
2021/12/11 10:17:20;;;;;;;8.15;5.75;;;5.70;54.20;;;;;;5030260;28;34114;-77
2021/12/11 10:19:49;;;;;;;9.88;5.70;;;5.70;54.20;;;;;;5014826;28;35513;-76
2021/12/11 10:22:29;;;;;;;8.10;5.72;;;5.70;54.20;;;;;;5014188;28;34052;-77
2021/12/11 10:24:55;;;;;;;9.02;5.38;;;5.70;54.20;;;;;;5032468;28;34180;-77
2021/12/11 10:27:26;;;;;;;11.98;6.38;;;5.70;54.40;;;;;;5047369;28;34334;-77
2021/12/11 10:29:53;;;;;;;8.65;5.55;;;5.70;54.30;;;;;;5030404;28;36316;-77
2021/12/11 10:32:24;;;;;;;11.02;5.45;;;5.70;54.20;;;;;;5028984;28;34185;-77
2021/12/11 10:34:54;;;;;;;11.80;5.75;;;5.80;54.40;;;;;;5030785;28;34151;-77
2021/12/11 10:37:28;;;;;;;8.10;5.30;;;5.80;54.40;;;;;;5013690;28;34568;-77
2021/12/11 10:39:58;;;;;;;8.10;5.45;;;5.90;54.40;;;;;;5046544;28;35936;-77
2021/12/11 10:42:25;;;;;;;8.52;5.68;;;5.90;54.40;;;;;;5041809;27;34198;-77
2021/12/11 10:44:56;;;;;;;9.48;5.18;;;5.90;54.30;;;;;;5065245;27;34222;-77
2021/12/11 10:47:27;;;;;;;9.18;5.65;;;6.00;54.30;;;;;;5050921;28;34019;-77
2021/12/11 10:49:53;;;;;;;8.02;5.22;;;6.00;54.20;;;;;;5065563;28;36083;-76
2021/12/11 10:52:26;;;;;;;8.60;5.18;;;6.00;54.10;;;;;;5065709;28;34457;-76
2021/12/11 10:54:56;;;;;;;7.75;5.15;;;6.10;54.10;;;;;;5066118;28;33809;-77
2021/12/11 10:57:23;;;;;;;7.50;5.13;;;6.10;54.10;;;;;;5067334;28;34304;-77
2021/12/11 10:59:54;;;;;;;7.45;5.07;;;6.20;53.90;;;;;;5032295;28;35792;-77
2021/12/11 11:02:26;;;;;;;9.75;5.53;;;6.20;54.00;;;;;;5067063;28;34294;-77
2021/12/11 11:04:55;;;;;;;8.27;5.07;;;6.30;54.10;;;;;;5049889;27;34289;-77
2021/12/11 11:07:22;;;;;;;9.57;5.47;;;6.30;54.00;;;;;;5050697;27;34265;-77
2021/12/11 11:09:50;;;;;;;9.43;5.10;;;6.40;54.00;;;;;;5065483;28;35884;-77
2021/12/11 11:12:20;;;;;;;10.05;5.60;;;6.40;53.90;;;;;;5049457;27;34926;-76
2021/12/11 11:14:48;;;;;;;10.82;5.90;;;6.50;53.70;;;;;;5048928;28;34259;-77
2021/12/11 11:17:18;;;;;;;10.13;5.57;;;6.50;53.80;;;;;;5032664;28;33922;-76
2021/12/11 11:19:46;;;;;;;10.07;5.20;;;6.60;53.60;;;;;;5031419;28;36264;-76
2021/12/11 11:22:18;;;;;;;9.93;4.95;;;6.70;53.90;;;;;;5066061;28;34225;-76
2021/12/11 11:24:49;;;;;;;7.40;4.85;;;6.80;53.90;;;;;;5065820;28;34276;-77
2021/12/11 11:27:17;;;;;;;8.27;4.05;;;6.80;53.50;;;;;;5064479;28;34144;-77
2021/12/11 11:29:44;;;;;;;8.85;4.70;;;6.90;53.40;;;;;;5064114;28;35813;-77
2021/12/11 11:32:17;;;;;;;9.90;4.18;;;6.90;53.60;;;;;;5065712;28;34342;-77
2021/12/11 11:34:44;;;;;;;8.60;4.30;;;7.00;53.30;;;;;;5048001;28;34186;-76
2021/12/11 11:37:19;;;;;;;7.75;4.10;;;7.00;53.40;;;;;;5064781;28;34162;-77
2021/12/11 11:39:47;;;;;;;8.85;4.13;;;7.00;53.70;;;;;;5048779;27;36404;-77
2021/12/11 11:42:19;;;;;;;7.72;4.32;;;7.10;53.60;;;;;;5048822;27;34363;-78
2021/12/11 11:44:47;;;;;;;13.05;3.95;;;7.20;53.30;;;;;;5046183;27;34511;-76
2021/12/11 11:47:15;;;;;;;5.75;3.63;;;7.30;53.20;;;;;;5030549;28;34273;-77
2021/12/11 11:49:42;;;;;;;5.90;3.95;;;7.30;53.10;;;;;;5062256;28;35854;-77
2021/12/11 11:52:13;;;;;;;6.47;3.70;;;7.20;53.00;;;;;;5044657;27;34180;-77
2021/12/11 11:54:42;;;;;;;5.20;3.10;;;7.30;53.10;;;;;;5062756;28;34307;-77
2021/12/11 11:57:15;;;;;;;5.22;3.28;;;7.30;53.00;;;;;;5046470;28;34532;-77
2021/12/11 11:59:41;;;;;;;8.10;3.67;;;7.30;53.10;;;;;;5064703;28;35692;-77
2021/12/11 12:02:12;;;;;;;5.18;3.53;;;7.30;53.00;;;;;;5061846;28;34343;-76
2021/12/11 12:04:39;;;;;;;6.65;3.47;;;7.20;52.70;;;;;;5031623;28;34259;-77
2021/12/11 12:07:08;;;;;;;14.38;3.67;;;7.20;52.90;;;;;;5069570;28;34470;-76
2021/12/11 12:09:41;;;;;;;7.25;3.65;;;7.30;53.20;;;;;;5056972;27;35647;-77
2021/12/11 12:12:09;;;;;;;7.40;3.55;;;7.30;53.00;;;;;;5136478;27;34291;-77
2021/12/11 12:14:36;;;;;;;5.85;3.63;;;7.30;52.80;;;;;;5072358;27;34095;-77
2021/12/11 12:17:04;;;;;;;5.95;3.10;;;7.40;52.70;;;;;;5046032;28;34150;-76
2021/12/11 12:19:31;;;;;;;9.55;3.45;;;7.50;52.60;;;;;;5008940;28;36699;-76
2021/12/11 12:22:03;;;;;;;6.95;3.60;;;7.40;52.10;;;;;;5007212;28;34263;-76
2021/12/11 12:24:31;;;;;;;7.00;3.63;;;7.40;52.40;;;;;;5024635;28;34090;-76
2021/12/11 12:27:00;;;;;;;10.23;3.47;;;7.40;52.60;;;;;;5084881;27;34085;-76
2021/12/11 12:29:27;;;;;;;6.38;3.22;;;7.40;52.30;;;;;;5121262;27;36527;-76
2021/12/11 12:32:01;;;;;;;7.00;3.40;;;7.50;52.40;;;;;;5090344;27;34345;-77
2021/12/11 12:34:28;;;;;;;3.97;3.00;;;7.50;52.30;;;;;;5043629;27;34379;-76
2021/12/11 12:36:56;;;;;;;6.15;3.20;;;7.40;52.10;;;;;;5038037;28;34145;-77
2021/12/11 12:39:27;;;;;;;6.97;3.20;;;7.40;52.40;;;;;;5065721;28;35963;-76
2021/12/11 12:42:08;;;;;;;7.60;3.03;;;7.50;52.40;;;;;;5071010;27;34142;-78
2021/12/11 12:44:35;;;;;;;5.82;3.00;;;7.50;52.10;;;;;;5024115;28;33631;-78
2021/12/11 12:47:11;;;;;;;3.90;2.90;;;7.40;51.90;;;;;;5066383;27;34309;-76
2021/12/11 12:49:41;;;;;;;5.30;2.60;;;7.30;50.80;;;;;;5122727;27;34587;-77
2021/12/11 12:52:15;;;;;;;3.17;2.30;;;7.30;51.90;;;;;;5077063;27;34313;-76
2021/12/11 12:54:42;;;;;;;6.07;2.78;;;7.30;51.10;;;;;;5096291;27;34312;-76
2021/12/11 12:57:21;;;;;;;6.22;2.50;;;7.30;51.70;;;;;;5129269;27;34379;-76
2021/12/11 13:00:06;;;;;;;3.90;2.40;;;7.30;51.50;;;;;;5112827;27;35604;-76
2021/12/11 13:02:35;;;;;;;2.97;2.22;;;7.30;51.60;;;;;;5056153;28;34143;-76
2021/12/11 13:05:12;;;;;;;3.92;2.40;;;7.20;51.80;;;;;;5051248;27;34258;-77
2021/12/11 13:07:38;;;;;;;4.70;2.30;;;7.20;49.20;;;;;;5104883;27;34025;-76
2021/12/11 13:10:11;;;;;;;6.03;2.33;;;7.20;51.50;;;;;;5122100;27;36083;-76
2021/12/11 13:12:41;;;;;;;5.53;2.40;;;7.30;52.00;;;;;;5038242;28;33845;-76
2021/12/11 13:15:19;;;;;;;5.63;2.70;;;7.40;51.60;;;;;;5045070;27;34235;-76
2021/12/11 13:17:49;;;;;;;4.85;2.50;;;7.50;51.30;;;;;;5025569;28;34173;-76